createdAt,value
2022-08-23T00:01:00.688Z,13.10
2022-08-23T00:03:48.185Z,13.00
2022-08-23T00:06:35.788Z,13.00
2022-08-23T00:09:25.201Z,12.90
2022-08-23T00:12:16.828Z,12.90
2022-08-23T00:15:04.160Z,12.90
2022-08-23T00:17:52.566Z,12.90
2022-08-23T00:20:39.557Z,12.90
2022-08-23T00:23:26.611Z,12.90
2022-08-23T00:26:17.957Z,12.80
2022-08-23T00:29:04.996Z,12.70
2022-08-23T00:31:51.846Z,12.70
2022-08-23T00:34:40.913Z,12.60
2022-08-23T00:37:29.514Z,12.60
2022-08-23T00:40:18.878Z,12.50
2022-08-23T00:43:31.466Z,12.40
2022-08-23T00:46:45.904Z,12.40
2022-08-23T00:49:33.906Z,12.30
2022-08-23T00:52:29.491Z,12.30
2022-08-23T00:55:18.138Z,12.20
2022-08-23T00:58:05.437Z,12.20
2022-08-23T01:00:54.943Z,12.10
2022-08-23T01:03:44.488Z,12.00
2022-08-23T01:06:39.469Z,12.00
2022-08-23T01:09:27.887Z,12.00
2022-08-23T01:12:29.581Z,11.90
2022-08-23T01:15:24.885Z,11.90
2022-08-23T01:18:16.672Z,11.80
2022-08-23T01:21:10.713Z,11.80
2022-08-23T01:24:01.808Z,11.80
2022-08-23T01:26:49.088Z,11.70
2022-08-23T01:29:36.306Z,11.70
2022-08-23T01:32:23.765Z,11.60
2022-08-23T01:35:11.449Z,11.60
2022-08-23T01:37:58.851Z,11.60
2022-08-23T01:40:47.507Z,11.50
2022-08-23T01:43:34.949Z,11.40
2022-08-23T01:46:25.074Z,11.40
2022-08-23T01:49:12.443Z,11.30
2022-08-23T01:51:59.911Z,11.30
2022-08-23T01:54:46.807Z,11.30
2022-08-23T01:57:36.167Z,11.20
2022-08-23T02:00:27.188Z,11.20
2022-08-23T02:03:15.958Z,11.10
2022-08-23T02:06:02.704Z,11.10
2022-08-23T02:09:03.384Z,11.10
2022-08-23T02:11:50.816Z,11.00
2022-08-23T02:14:42.150Z,11.00
2022-08-23T02:17:29.366Z,11.00
2022-08-23T02:20:16.192Z,10.90
2022-08-23T02:23:03.188Z,10.90
2022-08-23T02:25:51.824Z,10.90
2022-08-23T02:28:39.148Z,10.80
2022-08-23T02:31:27.547Z,10.80
2022-08-23T02:34:15.868Z,10.80
2022-08-23T02:37:04.174Z,10.80
2022-08-23T02:39:51.421Z,10.80
2022-08-23T02:42:38.318Z,10.80
2022-08-23T02:45:25.247Z,10.70
2022-08-23T02:48:13.550Z,10.60
2022-08-23T02:51:01.308Z,10.70
2022-08-23T02:53:48.649Z,10.70
2022-08-23T02:56:36.166Z,10.60
2022-08-23T02:59:22.878Z,10.60
2022-08-23T03:02:09.962Z,10.60
2022-08-23T03:04:58.715Z,10.60
2022-08-23T03:07:46.069Z,10.50
2022-08-23T03:10:33.395Z,10.50
2022-08-23T03:13:20.760Z,10.40
2022-08-23T03:16:08.313Z,10.40
2022-08-23T03:18:55.518Z,10.40
2022-08-23T03:21:44.267Z,10.40
2022-08-23T03:24:31.754Z,10.40
2022-08-23T03:27:18.918Z,10.40
2022-08-23T03:30:06.558Z,10.40
2022-08-23T03:33:00.444Z,10.40
2022-08-23T03:35:48.127Z,10.40
2022-08-23T03:38:37.937Z,10.40
2022-08-23T03:41:25.614Z,10.30
2022-08-23T03:44:12.574Z,10.30
2022-08-23T03:47:00.122Z,10.20
2022-08-23T03:49:47.269Z,10.20
2022-08-23T03:52:33.863Z,10.20
2022-08-23T03:55:22.433Z,10.20
2022-08-23T03:58:09.264Z,10.20
2022-08-23T04:00:57.403Z,10.10
2022-08-23T04:03:44.613Z,10.10
2022-08-23T04:06:33.198Z,10.10
2022-08-23T04:09:20.215Z,10.10
2022-08-23T04:12:12.031Z,10.00
2022-08-23T04:15:06.115Z,10.00
2022-08-23T04:17:53.019Z,9.90
2022-08-23T04:20:41.218Z,9.90
2022-08-23T04:23:28.600Z,9.90
2022-08-23T04:26:15.668Z,9.80
2022-08-23T04:29:05.071Z,9.80
2022-08-23T04:31:52.037Z,9.80
2022-08-23T04:34:40.055Z,9.80
2022-08-23T04:37:28.167Z,9.80
2022-08-23T04:40:32.582Z,9.80
2022-08-23T04:43:20.010Z,9.70
2022-08-23T04:46:10.291Z,9.70
2022-08-23T04:48:57.415Z,9.70
2022-08-23T04:51:44.503Z,9.70
2022-08-23T04:54:40.610Z,9.70
2022-08-23T04:57:27.939Z,9.70
2022-08-23T05:00:16.663Z,9.80
2022-08-23T05:03:05.353Z,9.80
2022-08-23T05:05:54.437Z,9.80
2022-08-23T05:08:41.452Z,9.80
2022-08-23T05:11:29.208Z,9.80
2022-08-23T05:14:16.168Z,9.90
2022-08-23T05:17:03.614Z,9.90
2022-08-23T05:19:52.560Z,9.90
2022-08-23T05:22:42.203Z,10.00
2022-08-23T05:25:49.539Z,10.00
2022-08-23T05:28:42.816Z,10.10
2022-08-23T05:31:31.127Z,10.20
2022-08-23T05:34:22.592Z,10.30
2022-08-23T05:37:11.315Z,10.30
2022-08-23T05:39:58.326Z,10.40
2022-08-23T05:42:45.353Z,10.50
2022-08-23T05:45:32.259Z,10.70
2022-08-23T05:48:19.653Z,10.90
2022-08-23T05:51:11.413Z,11.00
2022-08-23T05:54:02.009Z,11.20
2022-08-23T05:56:49.360Z,11.30
2022-08-23T05:59:36.602Z,11.40
2022-08-23T06:02:23.728Z,11.60
2022-08-23T06:05:10.923Z,11.70
2022-08-23T06:08:00.083Z,11.80
2022-08-23T06:10:48.560Z,12.00
2022-08-23T06:13:35.755Z,12.20
2022-08-23T06:16:27.985Z,12.30
2022-08-23T06:19:16.628Z,12.50
2022-08-23T06:22:03.409Z,12.50
2022-08-23T06:24:50.040Z,12.70
2022-08-23T06:27:38.670Z,12.90
2022-08-23T06:30:25.699Z,13.10
2022-08-23T06:33:14.239Z,13.20
2022-08-23T06:36:08.394Z,13.30
2022-08-23T06:38:56.334Z,13.50
2022-08-23T06:41:44.018Z,13.70
2022-08-23T06:44:33.915Z,14.60
2022-08-23T06:47:23.113Z,15.50
2022-08-23T06:50:11.644Z,16.20
2022-08-23T06:52:58.828Z,16.70
2022-08-23T06:55:46.779Z,16.90
2022-08-23T06:58:33.613Z,17.30
2022-08-23T07:01:44.656Z,17.80
2022-08-23T07:04:37.592Z,18.00
2022-08-23T07:07:24.350Z,18.50
2022-08-23T07:10:24.353Z,18.60
2022-08-23T07:13:11.641Z,18.70
2022-08-23T07:16:00.323Z,18.90
2022-08-23T07:18:49.819Z,19.40
2022-08-23T07:21:39.729Z,19.60
2022-08-23T07:24:32.920Z,19.80
2022-08-23T07:27:20.617Z,20.30
2022-08-23T07:30:08.749Z,21.20
2022-08-23T07:32:55.705Z,21.40
2022-08-23T07:35:49.892Z,21.10
2022-08-23T07:38:37.020Z,20.70
2022-08-23T07:41:25.504Z,21.30
2022-08-23T07:44:17.985Z,21.50
2022-08-23T07:47:05.498Z,21.10
2022-08-23T07:49:53.455Z,21.50
2022-08-23T07:52:41.882Z,21.00
2022-08-23T07:55:28.926Z,21.40
2022-08-23T07:58:15.832Z,22.00
2022-08-23T08:01:11.998Z,22.60
2022-08-23T08:04:04.325Z,23.30
2022-08-23T08:07:05.210Z,23.40
2022-08-23T08:10:00.873Z,23.40
2022-08-23T08:12:48.012Z,23.50
2022-08-23T08:15:34.980Z,24.40
2022-08-23T08:18:22.272Z,24.30
2022-08-23T08:21:09.090Z,25.50
2022-08-23T08:23:57.517Z,25.10
2022-08-23T08:26:46.922Z,24.70
2022-08-23T08:29:34.900Z,24.60
2022-08-23T08:32:22.000Z,25.00
2022-08-23T08:35:10.441Z,25.00
2022-08-23T08:37:58.178Z,25.30
2022-08-23T08:40:46.860Z,26.10
2022-08-23T08:43:49.279Z,26.60
2022-08-23T08:46:45.251Z,27.40
2022-08-23T08:49:42.642Z,26.80
2022-08-23T08:52:33.920Z,26.30
2022-08-23T08:55:25.144Z,26.60
2022-08-23T08:58:20.598Z,26.90
2022-08-23T09:01:08.932Z,27.30
2022-08-23T09:03:57.774Z,27.70
2022-08-23T09:06:55.021Z,28.50
2022-08-23T09:10:17.161Z,27.50
2022-08-23T09:13:36.946Z,27.20
2022-08-23T09:16:38.033Z,27.30
2022-08-23T09:19:26.398Z,27.00
2022-08-23T09:22:15.303Z,26.80
2022-08-23T09:25:02.361Z,26.40
2022-08-23T09:27:49.274Z,26.50
2022-08-23T09:30:53.855Z,26.50
2022-08-23T09:33:43.840Z,27.10
2022-08-23T09:36:35.463Z,25.90
2022-08-23T09:39:31.458Z,26.00
2022-08-23T09:42:30.751Z,26.00
2022-08-23T09:45:35.095Z,27.10
2022-08-23T09:48:36.328Z,27.80
2022-08-23T09:51:31.046Z,29.00
2022-08-23T09:54:23.040Z,29.30
2022-08-23T09:57:13.800Z,29.90
2022-08-23T10:00:18.520Z,30.10
2022-08-23T10:03:27.398Z,29.60
2022-08-23T10:06:30.981Z,30.30
2022-08-23T10:09:32.308Z,31.20
2022-08-23T10:12:19.299Z,31.00
2022-08-23T10:15:09.518Z,30.00
2022-08-23T10:18:04.116Z,29.00
2022-08-23T10:21:03.113Z,27.80
2022-08-23T10:24:05.683Z,27.90
2022-08-23T10:27:24.545Z,28.10
2022-08-23T10:30:14.290Z,27.80
2022-08-23T10:33:08.057Z,27.90
2022-08-23T10:36:02.873Z,28.70
2022-08-23T10:38:57.932Z,28.60
2022-08-23T10:41:55.492Z,29.00
2022-08-23T10:44:51.022Z,29.30
2022-08-23T10:47:53.728Z,30.50
2022-08-23T10:50:55.734Z,30.60
2022-08-23T10:53:47.338Z,30.00
2022-08-23T10:56:42.822Z,30.00
2022-08-23T10:59:33.684Z,30.00
2022-08-23T11:02:33.990Z,30.10
2022-08-23T11:05:27.209Z,30.00
2022-08-23T11:08:33.489Z,30.30
2022-08-23T11:11:43.295Z,29.90
2022-08-23T11:14:41.213Z,29.80
2022-08-23T11:17:35.902Z,29.70
2022-08-23T11:21:00.854Z,29.60
2022-08-23T11:23:55.611Z,30.50
2022-08-23T11:27:06.967Z,30.50
2022-08-23T11:29:55.542Z,29.30
2022-08-23T11:32:46.714Z,29.80
2022-08-23T11:35:43.288Z,30.70
2022-08-23T11:39:04.833Z,31.00
2022-08-23T11:42:05.572Z,31.30
2022-08-23T11:44:52.933Z,30.30
2022-08-23T11:47:44.828Z,30.20
2022-08-23T11:50:40.011Z,28.70
2022-08-23T11:53:43.067Z,27.50
2022-08-23T11:56:46.297Z,27.90
2022-08-23T12:00:01.585Z,28.50
2022-08-23T12:03:02.328Z,28.70
2022-08-23T12:06:32.312Z,27.80
2022-08-23T12:09:54.591Z,28.00
2022-08-23T12:12:47.004Z,27.20
2022-08-23T12:16:14.731Z,26.90
2022-08-23T12:19:10.422Z,27.30
2022-08-23T12:22:09.157Z,28.00
2022-08-23T12:25:00.648Z,27.30
2022-08-23T12:27:51.337Z,28.60
2022-08-23T12:30:48.712Z,28.00
2022-08-23T12:33:44.473Z,27.80
2022-08-23T12:36:43.870Z,27.60
2022-08-23T12:39:36.162Z,28.00
2022-08-23T12:42:28.281Z,28.40
2022-08-23T12:45:19.009Z,27.30
2022-08-23T12:48:10.431Z,26.40
2022-08-23T12:51:00.492Z,26.20
2022-08-23T12:53:48.945Z,26.80
2022-08-23T12:56:37.224Z,26.70
2022-08-23T12:59:35.159Z,26.40
2022-08-23T13:02:27.395Z,25.70
2022-08-23T13:05:18.772Z,26.40
2022-08-23T13:08:09.947Z,26.10
2022-08-23T13:10:58.963Z,26.90
2022-08-23T13:13:46.283Z,26.30
2022-08-23T13:16:42.891Z,26.70
2022-08-23T13:19:33.695Z,26.90
2022-08-23T13:22:26.461Z,27.30
2022-08-23T13:25:29.629Z,27.50
2022-08-23T13:28:27.333Z,27.50
2022-08-23T13:31:14.719Z,27.50
2022-08-23T13:34:01.842Z,27.60
2022-08-23T13:36:53.393Z,27.10
2022-08-23T13:39:47.314Z,27.00
2022-08-23T13:42:40.927Z,27.20
2022-08-23T13:45:31.148Z,27.60
2022-08-23T13:48:22.251Z,27.40
2022-08-23T13:51:20.553Z,27.00
2022-08-23T13:54:09.547Z,27.10
2022-08-23T13:57:01.358Z,26.00
2022-08-23T13:59:53.307Z,26.20
2022-08-23T14:02:41.788Z,26.10
2022-08-23T14:05:28.732Z,26.40
2022-08-23T14:08:20.382Z,25.60
2022-08-23T14:11:07.993Z,25.70
2022-08-23T14:13:54.831Z,26.40
2022-08-23T14:16:42.636Z,26.80
2022-08-23T14:22:38.955Z,26.80
2022-08-23T14:25:26.273Z,26.80
2022-08-23T14:28:13.333Z,26.80
2022-08-23T14:31:00.572Z,26.60
2022-08-23T14:33:48.088Z,26.40
2022-08-23T14:36:36.720Z,25.80
2022-08-23T14:39:23.926Z,25.70
2022-08-23T14:42:12.267Z,25.50
2022-08-23T14:44:59.381Z,25.40
2022-08-23T14:47:46.909Z,25.20
2022-08-23T14:50:34.379Z,25.60
2022-08-23T14:53:36.494Z,25.90
2022-08-23T14:56:25.385Z,25.60
2022-08-23T14:59:15.801Z,25.70
2022-08-23T15:02:03.130Z,25.20
2022-08-23T15:04:52.075Z,25.10
2022-08-23T15:07:39.335Z,25.00
2022-08-23T15:13:39.707Z,25.00
2022-08-23T15:16:42.325Z,24.80
2022-08-23T15:19:29.587Z,25.10
2022-08-23T15:22:18.919Z,25.50
2022-08-23T15:25:09.107Z,25.60
2022-08-23T15:27:57.870Z,25.80
2022-08-23T15:30:53.852Z,25.90
2022-08-23T15:33:40.984Z,25.80
2022-08-23T15:36:29.036Z,25.30
2022-08-23T15:39:16.489Z,25.10
2022-08-23T15:42:03.540Z,25.10
2022-08-23T15:44:52.431Z,25.10
2022-08-23T15:47:46.560Z,25.30
2022-08-23T15:50:36.375Z,25.30
2022-08-23T15:53:23.727Z,25.30
2022-08-23T15:56:14.957Z,25.40
2022-08-23T15:59:02.403Z,25.40
2022-08-23T16:01:51.084Z,24.70
2022-08-23T16:04:38.508Z,24.80
2022-08-23T16:07:25.723Z,24.90
2022-08-23T16:10:15.927Z,24.90
2022-08-23T16:13:03.561Z,24.90
2022-08-23T16:15:50.649Z,24.80
2022-08-23T16:18:39.274Z,24.90
2022-08-23T16:21:27.913Z,24.80
2022-08-23T16:24:15.264Z,25.00
2022-08-23T16:27:02.800Z,25.10
2022-08-23T16:29:50.284Z,25.00
2022-08-23T16:32:37.437Z,24.70
2022-08-23T16:35:26.122Z,24.70
2022-08-23T16:38:12.994Z,24.80
2022-08-23T16:41:00.522Z,24.70
2022-08-23T16:43:49.692Z,24.40
2022-08-23T16:46:37.191Z,24.00
2022-08-23T16:49:24.280Z,23.90
2022-08-23T16:52:12.773Z,23.70
2022-08-23T16:54:59.985Z,23.60
2022-08-23T16:57:47.500Z,23.50
2022-08-23T17:00:35.224Z,23.60
2022-08-23T17:03:22.336Z,23.50
2022-08-23T17:06:10.138Z,23.50
2022-08-23T17:08:58.808Z,23.40
2022-08-23T17:11:46.542Z,23.40
2022-08-23T17:14:33.635Z,23.30
2022-08-23T17:17:20.420Z,23.30
2022-08-23T17:20:08.646Z,23.20
2022-08-23T17:22:56.321Z,23.20
2022-08-23T17:25:48.074Z,23.00
2022-08-23T17:28:37.452Z,22.80
2022-08-23T17:31:24.912Z,22.70
2022-08-23T17:34:12.193Z,22.40
2022-08-23T17:37:16.852Z,22.10
2022-08-23T17:40:05.749Z,21.90
2022-08-23T17:42:55.872Z,21.70
2022-08-23T17:46:15.551Z,21.60
2022-08-23T17:49:11.073Z,21.40
2022-08-23T17:51:58.091Z,21.20
2022-08-23T17:54:45.169Z,21.10
2022-08-23T17:57:32.451Z,20.90
2022-08-23T18:00:21.247Z,20.70
2022-08-23T18:03:08.826Z,20.60
2022-08-23T18:05:55.975Z,20.40
2022-08-23T18:08:42.925Z,20.30
2022-08-23T18:11:32.105Z,20.20
2022-08-23T18:14:34.297Z,20.00
2022-08-23T18:17:29.809Z,19.80
2022-08-23T18:20:17.218Z,19.60
2022-08-23T18:23:04.862Z,19.50
2022-08-23T18:25:52.496Z,19.30
2022-08-23T18:28:38.233Z,19.20
2022-08-23T18:31:26.539Z,19.00
2022-08-23T18:34:17.813Z,18.90
2022-08-23T18:37:05.421Z,18.90
2022-08-23T18:39:52.640Z,18.70
2022-08-23T18:42:40.905Z,18.60
2022-08-23T18:45:28.170Z,18.50
2022-08-23T18:48:15.240Z,18.50
2022-08-23T18:51:05.058Z,18.40
2022-08-23T18:53:58.886Z,18.30
2022-08-23T18:56:46.507Z,18.20
2022-08-23T18:59:33.619Z,18.10
2022-08-23T19:02:24.391Z,17.90
2022-08-23T19:05:11.942Z,17.80
2022-08-23T19:08:00.684Z,17.70
2022-08-23T19:10:48.276Z,17.60
2022-08-23T19:13:35.456Z,17.60
2022-08-23T19:16:23.446Z,17.40
2022-08-23T19:19:11.878Z,17.30
2022-08-23T19:21:59.418Z,17.20
2022-08-23T19:24:48.100Z,17.20
2022-08-23T19:27:35.853Z,17.10
2022-08-23T19:30:22.893Z,17.00
2022-08-23T19:33:09.902Z,16.90
2022-08-23T19:35:58.187Z,16.80
2022-08-23T19:38:46.124Z,16.70
2022-08-23T19:41:34.602Z,16.60
2022-08-23T19:44:21.862Z,16.50
2022-08-23T19:47:13.364Z,16.40
2022-08-23T19:50:08.102Z,16.30
2022-08-23T19:52:55.466Z,16.20
2022-08-23T19:55:44.750Z,16.10
2022-08-23T19:58:33.510Z,16.00
2022-08-23T20:01:20.562Z,16.00
2022-08-23T20:04:07.996Z,15.90
2022-08-23T20:06:55.630Z,15.80
2022-08-23T20:09:42.734Z,15.80
2022-08-23T20:12:30.160Z,15.60
2022-08-23T20:15:18.731Z,15.60
2022-08-23T20:18:05.527Z,15.50
2022-08-23T20:20:54.040Z,15.40
2022-08-23T20:23:59.026Z,15.30
2022-08-23T20:26:48.437Z,15.20
2022-08-23T20:29:35.448Z,15.20
2022-08-23T20:32:24.268Z,15.20
2022-08-23T20:35:12.404Z,15.10
2022-08-23T20:38:01.952Z,15.10
2022-08-23T20:40:48.794Z,15.00
2022-08-23T20:43:40.502Z,15.00
2022-08-23T20:46:29.143Z,14.90
2022-08-23T20:49:17.881Z,14.90
2022-08-23T20:52:05.669Z,14.80
2022-08-23T20:54:53.609Z,14.80
2022-08-23T20:57:40.523Z,14.70
2022-08-23T21:00:27.980Z,14.70
2022-08-23T21:03:15.128Z,14.50
2022-08-23T21:06:09.135Z,14.50
2022-08-23T21:08:59.195Z,14.50
2022-08-23T21:11:46.396Z,14.40
2022-08-23T21:14:33.588Z,14.40
2022-08-23T21:17:21.060Z,14.30
2022-08-23T21:20:10.077Z,14.20
2022-08-23T21:22:58.584Z,14.10
2022-08-23T21:25:45.931Z,14.10
2022-08-23T21:28:33.656Z,14.00
2022-08-23T21:31:24.321Z,14.00
2022-08-23T21:34:11.885Z,13.90
2022-08-23T21:36:58.924Z,13.90
2022-08-23T21:39:47.971Z,13.80
2022-08-23T21:42:34.999Z,13.80
2022-08-23T21:45:22.085Z,13.70
2022-08-23T21:48:09.192Z,13.70
2022-08-23T21:50:55.888Z,13.60
2022-08-23T21:53:42.924Z,13.50
2022-08-23T21:56:31.674Z,13.50
2022-08-23T21:59:20.014Z,13.40
2022-08-23T22:02:07.307Z,13.40
2022-08-23T22:04:54.388Z,13.30
2022-08-23T22:07:42.350Z,13.30
2022-08-23T22:10:29.728Z,13.30
2022-08-23T22:13:17.949Z,13.20
2022-08-23T22:16:05.418Z,13.20
2022-08-23T22:18:52.670Z,13.20
2022-08-23T22:21:40.208Z,13.10
2022-08-23T22:24:27.020Z,13.10
2022-08-23T22:27:14.382Z,13.10
2022-08-23T22:30:02.934Z,13.00
2022-08-23T22:32:50.120Z,12.90
2022-08-23T22:35:39.625Z,12.90
2022-08-23T22:38:27.382Z,12.80
2022-08-23T22:41:17.643Z,12.70
2022-08-23T22:44:05.207Z,12.70
2022-08-23T22:46:53.908Z,12.70
2022-08-23T22:49:41.153Z,12.60
2022-08-23T22:52:28.103Z,12.60
2022-08-23T22:55:15.613Z,12.60
2022-08-23T22:58:03.213Z,12.50
2022-08-23T23:00:50.440Z,12.50
2022-08-23T23:03:38.733Z,12.40
2022-08-23T23:06:28.894Z,12.40
2022-08-23T23:09:16.018Z,12.40
2022-08-23T23:12:02.956Z,12.30
2022-08-23T23:14:49.970Z,12.20
2022-08-23T23:17:37.209Z,12.20
2022-08-23T23:20:40.907Z,12.10
2022-08-23T23:23:30.035Z,12.10
2022-08-23T23:26:17.094Z,12.10
2022-08-23T23:29:04.621Z,12.10
2022-08-23T23:31:52.185Z,12.00
2022-08-23T23:34:39.210Z,12.00
2022-08-23T23:37:27.938Z,11.90
2022-08-23T23:40:17.625Z,11.90
2022-08-23T23:43:05.241Z,11.80
2022-08-23T23:45:52.395Z,11.80
2022-08-23T23:48:40.418Z,11.80
2022-08-23T23:51:30.494Z,11.80
2022-08-23T23:54:19.083Z,11.70
2022-08-23T23:57:08.022Z,11.70
2022-08-23T23:59:55.538Z,11.60
